sensor_id;sensor_type;location;lat;lon;timestamp;pressure;altitude;pressure_sealevel;temperature;humidity
70009;BME280;59542;37.950;-122.338;2023-10-13T00:00:34;100708.94;;;24.19;43.33
70009;BME280;59542;37.950;-122.338;2023-10-13T00:03:03;100709.34;;;24.13;43.67
70009;BME280;59542;37.950;-122.338;2023-10-13T00:05:30;100714.78;;;23.61;44.33
70009;BME280;59542;37.950;-122.338;2023-10-13T00:08:01;100710.41;;;23.41;44.60
70009;BME280;59542;37.950;-122.338;2023-10-13T00:10:31;100707.31;;;23.29;44.77
70009;BME280;59542;37.950;-122.338;2023-10-13T00:13:01;100698.59;;;23.08;45.86
70009;BME280;59542;37.950;-122.338;2023-10-13T00:15:44;100709.00;;;23.06;44.22
70009;BME280;59542;37.950;-122.338;2023-10-13T00:18:32;100696.84;;;22.70;44.00
70009;BME280;59542;37.950;-122.338;2023-10-13T00:21:11;100700.38;;;22.70;44.68
70009;BME280;59542;37.950;-122.338;2023-10-13T00:23:45;100706.44;;;22.67;44.38
70009;BME280;59542;37.950;-122.338;2023-10-13T00:26:24;100705.38;;;22.63;44.44
70009;BME280;59542;37.950;-122.338;2023-10-13T00:28:59;100703.88;;;22.52;45.29
70009;BME280;59542;37.950;-122.338;2023-10-13T00:31:36;100706.72;;;22.65;44.16
70009;BME280;59542;37.950;-122.338;2023-10-13T00:34:04;100715.13;;;22.69;44.51
70009;BME280;59542;37.950;-122.338;2023-10-13T00:36:48;100711.19;;;22.80;44.59
70009;BME280;59542;37.950;-122.338;2023-10-13T00:39:35;100718.09;;;22.73;43.85
70009;BME280;59542;37.950;-122.338;2023-10-13T00:42:05;100726.91;;;22.64;44.70
70009;BME280;59542;37.950;-122.338;2023-10-13T00:44:44;100725.19;;;22.74;43.92
70009;BME280;59542;37.950;-122.338;2023-10-13T00:47:18;100719.63;;;22.60;44.07
70009;BME280;59542;37.950;-122.338;2023-10-13T00:50:04;100719.63;;;22.60;44.99
70009;BME280;59542;37.950;-122.338;2023-10-13T00:52:33;100723.34;;;22.40;44.80
70009;BME280;59542;37.950;-122.338;2023-10-13T00:55:01;100709.03;;;22.53;45.82
70009;BME280;59542;37.950;-122.338;2023-10-13T00:57:30;100714.31;;;22.16;47.26
70009;BME280;59542;37.950;-122.338;2023-10-13T00:59:57;100715.94;;;22.17;46.99
70009;BME280;59542;37.950;-122.338;2023-10-13T01:02:23;100717.69;;;21.97;47.12
70009;BME280;59542;37.950;-122.338;2023-10-13T01:05:05;100717.22;;;22.24;46.67
70009;BME280;59542;37.950;-122.338;2023-10-13T01:07:49;100717.28;;;21.80;47.81
70009;BME280;59542;37.950;-122.338;2023-10-13T01:10:27;100709.16;;;21.75;49.24
70009;BME280;59542;37.950;-122.338;2023-10-13T01:12:56;100723.16;;;21.58;50.19
70009;BME280;59542;37.950;-122.338;2023-10-13T01:15:22;100730.78;;;21.61;50.53
70009;BME280;59542;37.950;-122.338;2023-10-13T01:18:09;100730.66;;;21.27;51.89
70009;BME280;59542;37.950;-122.338;2023-10-13T01:20:38;100722.53;;;21.17;51.71
70009;BME280;59542;37.950;-122.338;2023-10-13T01:23:12;100726.16;;;20.97;52.92
70009;BME280;59542;37.950;-122.338;2023-10-13T01:25:45;100719.28;;;21.09;53.07
70009;BME280;59542;37.950;-122.338;2023-10-13T01:28:12;100721.81;;;20.96;53.81
70009;BME280;59542;37.950;-122.338;2023-10-13T01:30:44;100725.66;;;20.85;54.15
70009;BME280;59542;37.950;-122.338;2023-10-13T01:33:19;100725.97;;;20.68;53.98
70009;BME280;59542;37.950;-122.338;2023-10-13T01:35:57;100728.13;;;20.76;54.03
70009;BME280;59542;37.950;-122.338;2023-10-13T01:38:25;100740.41;;;20.53;54.92
70009;BME280;59542;37.950;-122.338;2023-10-13T01:40:59;100746.13;;;20.62;54.97
70009;BME280;59542;37.950;-122.338;2023-10-13T01:43:25;100740.97;;;20.45;55.31
70009;BME280;59542;37.950;-122.338;2023-10-13T01:45:51;100745.88;;;20.27;55.55
70009;BME280;59542;37.950;-122.338;2023-10-13T01:48:19;100747.78;;;20.22;55.91
70009;BME280;59542;37.950;-122.338;2023-10-13T01:50:47;100743.69;;;20.09;55.91
70009;BME280;59542;37.950;-122.338;2023-10-13T01:53:18;100747.75;;;20.01;56.81
70009;BME280;59542;37.950;-122.338;2023-10-13T01:55:45;100749.13;;;20.09;56.68
70009;BME280;59542;37.950;-122.338;2023-10-13T01:58:15;100757.50;;;19.82;57.33
70009;BME280;59542;37.950;-122.338;2023-10-13T02:00:42;100755.31;;;19.69;58.24
70009;BME280;59542;37.950;-122.338;2023-10-13T02:03:10;100755.91;;;19.91;57.57
70009;BME280;59542;37.950;-122.338;2023-10-13T02:05:44;100762.13;;;19.76;57.51
70009;BME280;59542;37.950;-122.338;2023-10-13T02:08:18;100761.56;;;19.64;57.81
70009;BME280;59542;37.950;-122.338;2023-10-13T02:10:51;100758.31;;;19.67;57.43
70009;BME280;59542;37.950;-122.338;2023-10-13T02:13:19;100765.66;;;19.72;56.39
70009;BME280;59542;37.950;-122.338;2023-10-13T02:15:49;100757.22;;;19.63;56.47
70009;BME280;59542;37.950;-122.338;2023-10-13T02:18:20;100754.22;;;19.70;55.96
70009;BME280;59542;37.950;-122.338;2023-10-13T02:20:47;100753.91;;;19.56;56.61
70009;BME280;59542;37.950;-122.338;2023-10-13T02:23:21;100764.16;;;19.34;56.42
70009;BME280;59542;37.950;-122.338;2023-10-13T02:25:47;100757.31;;;19.21;56.02
70009;BME280;59542;37.950;-122.338;2023-10-13T02:28:14;100752.34;;;19.03;56.48
70009;BME280;59542;37.950;-122.338;2023-10-13T02:30:41;100756.41;;;18.95;56.90
70009;BME280;59542;37.950;-122.338;2023-10-13T02:33:13;100758.84;;;18.96;56.65
70009;BME280;59542;37.950;-122.338;2023-10-13T02:35:40;100758.53;;;18.93;56.96
70009;BME280;59542;37.950;-122.338;2023-10-13T02:38:16;100753.91;;;18.83;56.26
70009;BME280;59542;37.950;-122.338;2023-10-13T02:40:52;100761.38;;;18.71;55.84
70009;BME280;59542;37.950;-122.338;2023-10-13T02:43:21;100762.88;;;18.52;55.60
70009;BME280;59542;37.950;-122.338;2023-10-13T02:45:54;100763.09;;;18.45;55.49
70009;BME280;59542;37.950;-122.338;2023-10-13T02:48:26;100770.69;;;18.48;55.23
70009;BME280;59542;37.950;-122.338;2023-10-13T02:50:57;100785.97;;;18.59;54.58
70009;BME280;59542;37.950;-122.338;2023-10-13T02:53:28;100790.41;;;18.70;54.04
70009;BME280;59542;37.950;-122.338;2023-10-13T02:55:55;100794.09;;;18.59;54.66
70009;BME280;59542;37.950;-122.338;2023-10-13T02:58:31;100796.91;;;18.69;54.65
70009;BME280;59542;37.950;-122.338;2023-10-13T03:01:10;100788.81;;;18.42;54.93
70009;BME280;59542;37.950;-122.338;2023-10-13T03:03:51;100786.34;;;18.36;55.42
70009;BME280;59542;37.950;-122.338;2023-10-13T03:06:22;100792.06;;;18.39;54.94
70009;BME280;59542;37.950;-122.338;2023-10-13T03:08:51;100782.97;;;18.24;55.49
70009;BME280;59542;37.950;-122.338;2023-10-13T03:11:18;100772.78;;;18.36;55.04
70009;BME280;59542;37.950;-122.338;2023-10-13T03:13:49;100778.25;;;18.09;55.71
70009;BME280;59542;37.950;-122.338;2023-10-13T03:16:18;100781.59;;;17.89;56.46
70009;BME280;59542;37.950;-122.338;2023-10-13T03:18:48;100783.94;;;18.07;55.50
70009;BME280;59542;37.950;-122.338;2023-10-13T03:21:22;100786.59;;;18.02;55.42
70009;BME280;59542;37.950;-122.338;2023-10-13T03:23:59;100787.06;;;17.94;55.87
70009;BME280;59542;37.950;-122.338;2023-10-13T03:26:33;100779.13;;;17.87;55.27
70009;BME280;59542;37.950;-122.338;2023-10-13T03:29:06;100779.38;;;17.86;55.10
70009;BME280;59542;37.950;-122.338;2023-10-13T03:31:39;100774.69;;;17.76;55.11
70009;BME280;59542;37.950;-122.338;2023-10-13T03:34:06;100768.16;;;17.50;55.05
70009;BME280;59542;37.950;-122.338;2023-10-13T03:36:36;100771.13;;;17.27;55.26
70009;BME280;59542;37.950;-122.338;2023-10-13T03:39:20;100772.31;;;17.14;55.82
70009;BME280;59542;37.950;-122.338;2023-10-13T03:41:57;100769.22;;;16.83;56.73
70009;BME280;59542;37.950;-122.338;2023-10-13T03:44:24;100775.41;;;17.01;56.05
70009;BME280;59542;37.950;-122.338;2023-10-13T03:46:56;100772.44;;;17.02;55.89
70009;BME280;59542;37.950;-122.338;2023-10-13T03:49:22;100773.66;;;17.11;55.53
70009;BME280;59542;37.950;-122.338;2023-10-13T03:51:51;100788.13;;;17.22;56.04
70009;BME280;59542;37.950;-122.338;2023-10-13T03:54:20;100780.13;;;17.10;56.45
70009;BME280;59542;37.950;-122.338;2023-10-13T03:56:46;100781.34;;;17.03;56.46
70009;BME280;59542;37.950;-122.338;2023-10-13T03:59:18;100783.88;;;17.09;56.41
70009;BME280;59542;37.950;-122.338;2023-10-13T04:01:45;100783.56;;;17.06;56.74
70009;BME280;59542;37.950;-122.338;2023-10-13T04:04:24;100782.81;;;16.88;57.27
70009;BME280;59542;37.950;-122.338;2023-10-13T04:07:03;100784.09;;;16.86;57.47
70009;BME280;59542;37.950;-122.338;2023-10-13T04:09:36;100774.81;;;16.77;57.68
70009;BME280;59542;37.950;-122.338;2023-10-13T04:12:07;100776.34;;;16.73;57.76
70009;BME280;59542;37.950;-122.338;2023-10-13T04:14:41;100783.13;;;16.75;57.64
70009;BME280;59542;37.950;-122.338;2023-10-13T04:17:11;100772.56;;;16.57;58.09
70009;BME280;59542;37.950;-122.338;2023-10-13T04:19:43;100769.88;;;16.57;58.16
70009;BME280;59542;37.950;-122.338;2023-10-13T04:22:42;100759.72;;;16.47;58.47
70009;BME280;59542;37.950;-122.338;2023-10-13T04:25:26;100764.81;;;16.44;58.13
70009;BME280;59542;37.950;-122.338;2023-10-13T04:28:10;100772.16;;;16.31;58.32
70009;BME280;59542;37.950;-122.338;2023-10-13T04:33:19;100777.47;;;16.26;58.54
70009;BME280;59542;37.950;-122.338;2023-10-13T04:36:06;100767.91;;;16.19;58.44
70009;BME280;59542;37.950;-122.338;2023-10-13T04:38:50;100784.53;;;16.10;58.42
70009;BME280;59542;37.950;-122.338;2023-10-13T04:41:27;100792.13;;;16.14;58.71
70009;BME280;59542;37.950;-122.338;2023-10-13T04:44:16;100791.59;;;15.83;59.03
70009;BME280;59542;37.950;-122.338;2023-10-13T04:47:01;100796.78;;;16.01;58.13
70009;BME280;59542;37.950;-122.338;2023-10-13T04:49:29;100802.16;;;15.84;58.52
70009;BME280;59542;37.950;-122.338;2023-10-13T04:52:16;100799.59;;;15.78;58.76
70009;BME280;59542;37.950;-122.338;2023-10-13T04:55:00;100805.88;;;15.67;59.05
70009;BME280;59542;37.950;-122.338;2023-10-13T04:57:42;100810.50;;;15.83;58.97
70009;BME280;59542;37.950;-122.338;2023-10-13T05:00:12;100817.72;;;15.66;59.32
70009;BME280;59542;37.950;-122.338;2023-10-13T05:02:41;100815.34;;;15.57;59.81
70009;BME280;59542;37.950;-122.338;2023-10-13T05:05:19;100809.44;;;15.44;60.18
70009;BME280;59542;37.950;-122.338;2023-10-13T05:07:52;100813.91;;;15.38;60.27
70009;BME280;59542;37.950;-122.338;2023-10-13T05:10:37;100814.94;;;15.37;60.33
70009;BME280;59542;37.950;-122.338;2023-10-13T05:13:21;100813.97;;;15.43;60.19
70009;BME280;59542;37.950;-122.338;2023-10-13T05:16:06;100824.19;;;15.41;60.05
70009;BME280;59542;37.950;-122.338;2023-10-13T05:18:50;100821.84;;;15.45;60.03
70009;BME280;59542;37.950;-122.338;2023-10-13T05:21:35;100811.19;;;15.26;60.14
70009;BME280;59542;37.950;-122.338;2023-10-13T05:24:19;100809.84;;;15.12;60.92
70009;BME280;59542;37.950;-122.338;2023-10-13T05:27:03;100804.56;;;15.05;58.52
70009;BME280;59542;37.950;-122.338;2023-10-13T05:29:48;100808.44;;;14.98;58.35
70009;BME280;59542;37.950;-122.338;2023-10-13T05:32:33;100811.09;;;15.10;58.56
70009;BME280;59542;37.950;-122.338;2023-10-13T05:35:20;100805.81;;;15.26;58.16
70009;BME280;59542;37.950;-122.338;2023-10-13T05:38:05;100813.47;;;15.18;58.08
70009;BME280;59542;37.950;-122.338;2023-10-13T05:40:59;100824.13;;;15.13;58.28
70009;BME280;59542;37.950;-122.338;2023-10-13T05:43:44;100830.09;;;15.03;58.68
70009;BME280;59542;37.950;-122.338;2023-10-13T05:46:28;100823.19;;;15.07;59.46
70009;BME280;59542;37.950;-122.338;2023-10-13T05:49:07;100829.66;;;15.06;59.96
70009;BME280;59542;37.950;-122.338;2023-10-13T05:51:43;100828.34;;;14.97;60.08
70009;BME280;59542;37.950;-122.338;2023-10-13T05:54:32;100829.53;;;14.89;60.36
70009;BME280;59542;37.950;-122.338;2023-10-13T05:57:17;100828.81;;;14.82;60.70
70009;BME280;59542;37.950;-122.338;2023-10-13T06:00:02;100813.00;;;14.74;61.06
70009;BME280;59542;37.950;-122.338;2023-10-13T06:02:46;100812.06;;;14.80;61.25
70009;BME280;59542;37.950;-122.338;2023-10-13T06:05:31;100812.44;;;14.72;61.91
70009;BME280;59542;37.950;-122.338;2023-10-13T06:08:15;100818.84;;;14.59;62.08
70009;BME280;59542;37.950;-122.338;2023-10-13T06:11:03;100821.91;;;14.51;61.90
70009;BME280;59542;37.950;-122.338;2023-10-13T06:13:48;100818.69;;;14.42;61.69
70009;BME280;59542;37.950;-122.338;2023-10-13T06:16:33;100821.66;;;14.52;60.91
70009;BME280;59542;37.950;-122.338;2023-10-13T06:19:18;100829.19;;;14.32;61.50
70009;BME280;59542;37.950;-122.338;2023-10-13T06:22:02;100838.59;;;14.41;60.62
70009;BME280;59542;37.950;-122.338;2023-10-13T06:24:47;100833.44;;;14.28;60.55
70009;BME280;59542;37.950;-122.338;2023-10-13T06:27:31;100831.88;;;14.20;59.94
70009;BME280;59542;37.950;-122.338;2023-10-13T06:30:16;100831.28;;;14.18;59.65
70009;BME280;59542;37.950;-122.338;2023-10-13T06:32:43;100835.47;;;14.14;59.45
70009;BME280;59542;37.950;-122.338;2023-10-13T06:35:11;100836.78;;;14.12;58.48
70009;BME280;59542;37.950;-122.338;2023-10-13T06:37:50;100839.00;;;14.15;58.05
70009;BME280;59542;37.950;-122.338;2023-10-13T06:40:17;100841.69;;;14.15;57.74
70009;BME280;59542;37.950;-122.338;2023-10-13T06:42:55;100829.88;;;14.16;57.96
70009;BME280;59542;37.950;-122.338;2023-10-13T06:45:37;100847.16;;;14.08;57.35
70009;BME280;59542;37.950;-122.338;2023-10-13T06:48:07;100845.44;;;14.14;57.27
70009;BME280;59542;37.950;-122.338;2023-10-13T06:50:37;100850.03;;;14.25;58.13
70009;BME280;59542;37.950;-122.338;2023-10-13T06:53:07;100855.88;;;14.22;57.93
70009;BME280;59542;37.950;-122.338;2023-10-13T06:55:38;100857.84;;;14.15;57.81
70009;BME280;59542;37.950;-122.338;2023-10-13T06:58:08;100864.75;;;14.11;57.71
70009;BME280;59542;37.950;-122.338;2023-10-13T07:00:40;100863.59;;;14.18;58.03
70009;BME280;59542;37.950;-122.338;2023-10-13T07:03:07;100858.59;;;14.04;57.64
70009;BME280;59542;37.950;-122.338;2023-10-13T07:05:43;100864.59;;;14.06;57.57
70009;BME280;59542;37.950;-122.338;2023-10-13T07:08:14;100865.63;;;14.05;57.73
70009;BME280;59542;37.950;-122.338;2023-10-13T07:10:54;100861.44;;;14.09;57.41
70009;BME280;59542;37.950;-122.338;2023-10-13T07:13:43;100864.13;;;14.09;57.16
70009;BME280;59542;37.950;-122.338;2023-10-13T07:16:16;100862.19;;;14.16;57.36
70009;BME280;59542;37.950;-122.338;2023-10-13T07:18:42;100860.91;;;14.18;57.49
70009;BME280;59542;37.950;-122.338;2023-10-13T07:21:20;100859.81;;;14.08;57.81
70009;BME280;59542;37.950;-122.338;2023-10-13T07:23:57;100860.53;;;14.15;57.80
70009;BME280;59542;37.950;-122.338;2023-10-13T07:26:37;100865.91;;;14.15;58.05
70009;BME280;59542;37.950;-122.338;2023-10-13T07:29:12;100852.44;;;14.15;58.08
70009;BME280;59542;37.950;-122.338;2023-10-13T07:31:38;100853.75;;;14.12;58.16
70009;BME280;59542;37.950;-122.338;2023-10-13T07:34:07;100846.03;;;14.16;57.77
70009;BME280;59542;37.950;-122.338;2023-10-13T07:36:52;100854.97;;;14.28;57.94
70009;BME280;59542;37.950;-122.338;2023-10-13T07:39:18;100860.53;;;14.15;58.04
70009;BME280;59542;37.950;-122.338;2023-10-13T07:41:50;100864.03;;;14.15;58.06
70009;BME280;59542;37.950;-122.338;2023-10-13T07:44:42;100866.19;;;14.25;57.97
70009;BME280;59542;37.950;-122.338;2023-10-13T07:47:12;100870.16;;;14.22;58.02
70009;BME280;59542;37.950;-122.338;2023-10-13T07:49:40;100867.09;;;14.19;57.65
70009;BME280;59542;37.950;-122.338;2023-10-13T07:52:08;100865.59;;;14.23;57.26
70009;BME280;59542;37.950;-122.338;2023-10-13T07:54:48;100859.81;;;14.08;57.61
70009;BME280;59542;37.950;-122.338;2023-10-13T07:57:16;100870.00;;;13.87;57.76
70009;BME280;59542;37.950;-122.338;2023-10-13T07:59:43;100872.69;;;13.87;57.67
70009;BME280;59542;37.950;-122.338;2023-10-13T08:02:18;100863.50;;;13.77;58.66
70009;BME280;59542;37.950;-122.338;2023-10-13T08:05:20;100860.28;;;13.86;58.39
70009;BME280;59542;37.950;-122.338;2023-10-13T08:08:05;100855.28;;;13.90;58.53
70009;BME280;59542;37.950;-122.338;2023-10-13T08:10:40;100855.19;;;13.96;58.26
70009;BME280;59542;37.950;-122.338;2023-10-13T08:13:08;100859.75;;;13.96;58.34
70009;BME280;59542;37.950;-122.338;2023-10-13T08:15:42;100874.13;;;13.90;58.80
70009;BME280;59542;37.950;-122.338;2023-10-13T08:18:14;100864.94;;;13.79;58.47
70009;BME280;59542;37.950;-122.338;2023-10-13T08:20:50;100864.22;;;13.72;57.75
70009;BME280;59542;37.950;-122.338;2023-10-13T08:23:17;100871.09;;;13.68;57.79
70009;BME280;59542;37.950;-122.338;2023-10-13T08:26:08;100871.81;;;13.75;57.84
70009;BME280;59542;37.950;-122.338;2023-10-13T08:28:53;100883.50;;;13.69;58.26
70009;BME280;59542;37.950;-122.338;2023-10-13T08:31:22;100880.38;;;13.72;58.26
70009;BME280;59542;37.950;-122.338;2023-10-13T08:33:51;100883.94;;;13.66;58.47
70009;BME280;59542;37.950;-122.338;2023-10-13T08:36:31;100881.38;;;13.89;58.18
70009;BME280;59542;37.950;-122.338;2023-10-13T08:38:58;100875.66;;;13.97;57.99
70009;BME280;59542;37.950;-122.338;2023-10-13T08:41:44;100883.53;;;13.81;58.27
70009;BME280;59542;37.950;-122.338;2023-10-13T08:44:41;100882.81;;;13.73;58.55
70009;BME280;59542;37.950;-122.338;2023-10-13T08:47:14;100873.19;;;13.47;59.63
70009;BME280;59542;37.950;-122.338;2023-10-13T08:49:46;100871.16;;;13.43;60.29
70009;BME280;59542;37.950;-122.338;2023-10-13T08:52:17;100862.88;;;13.26;61.45
70009;BME280;59542;37.950;-122.338;2023-10-13T08:55:05;100852.88;;;13.33;61.75
70009;BME280;59542;37.950;-122.338;2023-10-13T08:57:49;100864.59;;;13.39;61.67
70009;BME280;59542;37.950;-122.338;2023-10-13T09:00:19;100872.91;;;13.56;60.93
70009;BME280;59542;37.950;-122.338;2023-10-13T09:03:14;100882.44;;;13.52;60.93
70009;BME280;59542;37.950;-122.338;2023-10-13T09:05:52;100882.00;;;13.55;61.00
70009;BME280;59542;37.950;-122.338;2023-10-13T09:08:30;100882.88;;;13.48;61.38
70009;BME280;59542;37.950;-122.338;2023-10-13T09:11:22;100883.84;;;13.54;61.23
70009;BME280;59542;37.950;-122.338;2023-10-13T09:13:53;100886.69;;;13.41;61.54
70009;BME280;59542;37.950;-122.338;2023-10-13T09:16:19;100888.97;;;13.44;61.23
70009;BME280;59542;37.950;-122.338;2023-10-13T09:19:08;100889.78;;;13.44;61.21
70009;BME280;59542;37.950;-122.338;2023-10-13T09:21:41;100899.84;;;13.49;61.07
70009;BME280;59542;37.950;-122.338;2023-10-13T09:24:13;100892.00;;;13.47;61.02
70009;BME280;59542;37.950;-122.338;2023-10-13T09:26:53;100888.72;;;13.45;61.07
70009;BME280;59542;37.950;-122.338;2023-10-13T09:29:22;100886.63;;;13.47;61.05
70009;BME280;59542;37.950;-122.338;2023-10-13T09:32:01;100884.44;;;13.38;61.18
70009;BME280;59542;37.950;-122.338;2023-10-13T09:34:27;100881.84;;;13.31;60.91
70009;BME280;59542;37.950;-122.338;2023-10-13T09:37:00;100889.69;;;13.51;60.66
70009;BME280;59542;37.950;-122.338;2023-10-13T09:39:29;100899.31;;;13.59;60.88
70009;BME280;59542;37.950;-122.338;2023-10-13T09:41:58;100904.56;;;13.54;61.04
70009;BME280;59542;37.950;-122.338;2023-10-13T09:44:26;100903.22;;;13.44;61.27
70009;BME280;59542;37.950;-122.338;2023-10-13T09:47:10;100916.06;;;13.42;61.43
70009;BME280;59542;37.950;-122.338;2023-10-13T09:49:44;100909.03;;;13.41;61.71
70009;BME280;59542;37.950;-122.338;2023-10-13T09:52:18;100911.78;;;13.35;62.27
70009;BME280;59542;37.950;-122.338;2023-10-13T09:57:54;100904.94;;;13.14;65.06
70009;BME280;59542;37.950;-122.338;2023-10-13T10:00:29;100903.03;;;13.21;64.46
70009;BME280;59542;37.950;-122.338;2023-10-13T10:03:07;100907.38;;;13.22;64.40
70009;BME280;59542;37.950;-122.338;2023-10-13T10:05:58;100902.69;;;13.11;64.24
70009;BME280;59542;37.950;-122.338;2023-10-13T10:08:33;100904.50;;;12.92;63.57
70009;BME280;59542;37.950;-122.338;2023-10-13T10:19:29;100888.56;;;12.72;63.02
70009;BME280;59542;37.950;-122.338;2023-10-13T10:22:03;100896.00;;;12.70;63.52
70009;BME280;59542;37.950;-122.338;2023-10-13T10:24:44;100898.53;;;12.65;64.06
70009;BME280;59542;37.950;-122.338;2023-10-13T10:27:11;100904.69;;;12.72;64.19
70009;BME280;59542;37.950;-122.338;2023-10-13T10:29:56;100893.88;;;12.79;64.46
70009;BME280;59542;37.950;-122.338;2023-10-13T10:32:36;100895.59;;;12.73;65.62
70009;BME280;59542;37.950;-122.338;2023-10-13T10:35:09;100891.28;;;12.65;66.50
70009;BME280;59542;37.950;-122.338;2023-10-13T10:37:41;100892.59;;;12.81;66.09
70009;BME280;59542;37.950;-122.338;2023-10-13T10:40:14;100893.22;;;12.83;66.13
70009;BME280;59542;37.950;-122.338;2023-10-13T10:43:13;100887.16;;;12.88;65.71
70009;BME280;59542;37.950;-122.338;2023-10-13T10:45:47;100884.34;;;12.83;66.33
70009;BME280;59542;37.950;-122.338;2023-10-13T10:48:17;100868.81;;;12.85;66.27
70009;BME280;59542;37.950;-122.338;2023-10-13T10:50:54;100873.97;;;12.86;66.13
70009;BME280;59542;37.950;-122.338;2023-10-13T10:53:24;100882.19;;;12.91;65.69
70009;BME280;59542;37.950;-122.338;2023-10-13T10:56:13;100881.22;;;12.86;65.50
70009;BME280;59542;37.950;-122.338;2023-10-13T10:58:49;100887.69;;;12.78;65.43
70009;BME280;59542;37.950;-122.338;2023-10-13T11:01:22;100899.03;;;13.05;66.66
70009;BME280;59542;37.950;-122.338;2023-10-13T11:03:55;100890.97;;;12.80;67.60
70009;BME280;59542;37.950;-122.338;2023-10-13T11:06:24;100884.28;;;12.64;68.62
70009;BME280;59542;37.950;-122.338;2023-10-13T11:09:12;100889.47;;;12.59;69.03
70009;BME280;59542;37.950;-122.338;2023-10-13T11:14:39;100884.63;;;12.43;68.67
70009;BME280;59542;37.950;-122.338;2023-10-13T11:17:06;100878.44;;;12.42;67.95
70009;BME280;59542;37.950;-122.338;2023-10-13T11:19:47;100875.13;;;12.09;68.14
70009;BME280;59542;37.950;-122.338;2023-10-13T11:22:20;100878.63;;;12.16;67.74
70009;BME280;59542;37.950;-122.338;2023-10-13T11:25:03;100871.63;;;12.08;67.46
70009;BME280;59542;37.950;-122.338;2023-10-13T11:27:40;100873.31;;;12.03;67.10
70009;BME280;59542;37.950;-122.338;2023-10-13T11:30:19;100867.81;;;11.91;66.95
70009;BME280;59542;37.950;-122.338;2023-10-13T11:33:01;100869.00;;;12.02;65.92
70009;BME280;59542;37.950;-122.338;2023-10-13T11:35:38;100872.47;;;12.09;65.31
70009;BME280;59542;37.950;-122.338;2023-10-13T11:38:38;100872.97;;;11.93;65.07
70009;BME280;59542;37.950;-122.338;2023-10-13T11:41:08;100867.41;;;11.94;64.79
70009;BME280;59542;37.950;-122.338;2023-10-13T11:43:41;100883.66;;;11.99;64.43
70009;BME280;59542;37.950;-122.338;2023-10-13T11:46:11;100868.41;;;11.93;64.01
70009;BME280;59542;37.950;-122.338;2023-10-13T11:48:41;100870.47;;;11.98;63.82
70009;BME280;59542;37.950;-122.338;2023-10-13T11:51:12;100870.69;;;11.96;64.01
70009;BME280;59542;37.950;-122.338;2023-10-13T11:54:00;100865.34;;;11.89;63.32
70009;BME280;59542;37.950;-122.338;2023-10-13T11:56:26;100876.09;;;11.89;63.19
70009;BME280;59542;37.950;-122.338;2023-10-13T11:58:53;100872.97;;;11.93;62.95
70009;BME280;59542;37.950;-122.338;2023-10-13T12:01:19;100870.09;;;11.94;62.89
70009;BME280;59542;37.950;-122.338;2023-10-13T12:03:48;100865.78;;;11.86;63.07
70009;BME280;59542;37.950;-122.338;2023-10-13T12:06:34;100868.84;;;11.90;62.97
70009;BME280;59542;37.950;-122.338;2023-10-13T12:09:13;100879.41;;;11.85;63.51
70009;BME280;59542;37.950;-122.338;2023-10-13T12:12:05;100885.16;;;11.88;63.49
70009;BME280;59542;37.950;-122.338;2023-10-13T12:14:33;100880.22;;;11.85;63.79
70009;BME280;59542;37.950;-122.338;2023-10-13T12:17:03;100892.41;;;11.75;64.09
70009;BME280;59542;37.950;-122.338;2023-10-13T12:19:30;100884.81;;;11.65;64.29
70009;BME280;59542;37.950;-122.338;2023-10-13T12:21:57;100879.00;;;11.81;63.70
70009;BME280;59542;37.950;-122.338;2023-10-13T12:24:30;100877.94;;;11.76;63.68
70009;BME280;59542;37.950;-122.338;2023-10-13T12:27:06;100883.09;;;11.91;62.48
70009;BME280;59542;37.950;-122.338;2023-10-13T12:29:48;100885.22;;;11.69;63.07
70009;BME280;59542;37.950;-122.338;2023-10-13T12:32:14;100896.09;;;11.80;62.69
70009;BME280;59542;37.950;-122.338;2023-10-13T12:34:46;100889.09;;;11.79;62.65
70009;BME280;59542;37.950;-122.338;2023-10-13T12:37:31;100887.84;;;11.75;63.39
70009;BME280;59542;37.950;-122.338;2023-10-13T12:40:14;100892.00;;;11.71;63.76
70009;BME280;59542;37.950;-122.338;2023-10-13T12:42:59;100898.84;;;11.67;64.28
70009;BME280;59542;37.950;-122.338;2023-10-13T12:45:45;100899.88;;;11.66;63.63
70009;BME280;59542;37.950;-122.338;2023-10-13T12:48:31;100912.25;;;11.54;63.96
70009;BME280;59542;37.950;-122.338;2023-10-13T12:51:16;100910.84;;;11.51;63.87
70009;BME280;59542;37.950;-122.338;2023-10-13T12:54:03;100911.88;;;11.44;64.29
70009;BME280;59542;37.950;-122.338;2023-10-13T12:56:40;100904.47;;;11.46;64.27
70009;BME280;59542;37.950;-122.338;2023-10-13T12:59:10;100898.72;;;11.35;64.29
70009;BME280;59542;37.950;-122.338;2023-10-13T13:01:40;100901.16;;;11.37;64.16
70009;BME280;59542;37.950;-122.338;2023-10-13T13:04:10;100894.78;;;11.45;64.05
70009;BME280;59542;37.950;-122.338;2023-10-13T13:06:57;100896.63;;;11.37;64.24
70009;BME280;59542;37.950;-122.338;2023-10-13T13:09:23;100897.47;;;11.31;64.20
70009;BME280;59542;37.950;-122.338;2023-10-13T13:11:53;100885.34;;;11.29;64.11
70009;BME280;59542;37.950;-122.338;2023-10-13T13:14:24;100898.53;;;11.17;64.47
70009;BME280;59542;37.950;-122.338;2023-10-13T13:16:56;100895.03;;;11.23;63.92
70009;BME280;59542;37.950;-122.338;2023-10-13T13:19:38;100898.75;;;11.02;64.40